• Join FlightAware (Why Join?)
  • Login
  • US Flag GB Flag 
01:33 EST


 

Airport Tracker/Info


-or-


 

Live Flight TrackerFlight Track Log ✈ BOE5 ✈ 27-Apr-2013 ✈ PHKO / KOA - PHKO / KOA

Flight Track Log - Related Links

Times and Time Zones

All times are in EDT time to prevent confusion due to time zone crossing. See the BOE5 flight status page for this flight to view local times or setup timezone preferences in your user account.

Time Position Orientation Groundspeed Altitude Reporting Facility
EDT Latitude Longitude Course Direction KTS MPH feet Rate Location/Type
16:30 19.0333 -156.2833 289° West 210 242 5,100  Level Honolulu Center
16:31 19.0500 -156.3333 289° West 220 253 5,100  Level Honolulu Center
16:32 19.1000 -156.3667 328° Northwest 220 253 5,100  Level Honolulu Center
16:33 19.1667 -156.3833 347° North 210 242 5,100  Level Honolulu Center
16:34 19.2167 -156.4167 328° Northwest 210 242 5,100  Level Honolulu Center
16:35 19.2667 -156.4167 360° North 210 242 5,100  Level Honolulu Center
16:36 19.3333 -156.4333 347° North 210 242 5,100  Level Honolulu Center
16:37 19.3833 -156.4500 343° North 200 230 5,100  Level Honolulu Center
16:38 19.4333 -156.4667 343° North 200 230 5,100  Level Honolulu Center
16:39 19.5000 -156.4833 347° North 200 230 5,100  Level Honolulu Center
16:40 19.5500 -156.4833 360° North 200 230 5,100  Level Honolulu Center
16:41 19.6000 -156.5000 343° North 200 230 5,100  Level Honolulu Center
16:42 19.6667 -156.5167 347° North 200 230 5,100  Level Honolulu Center
16:43 19.7167 -156.5333 343° North 200 230 5,100  Level Honolulu Center
16:44 19.7667 -156.5500 343° North 190 219 5,100  Level Honolulu Center
16:45 19.8167 -156.5500 360° North 200 230 5,100  Level Honolulu Center
16:46 19.8833 -156.5833 335° Northwest 200 230 5,100  Level Honolulu Center
16:47 19.9167 -156.6167 317° Northwest 190 219 5,100  Level Honolulu Center
16:48 19.9667 -156.6500 328° Northwest 200 230 5,100  Level Honolulu Center
16:49 20.0000 -156.6833 317° Northwest 200 230 5,100  Level Honolulu Center
16:50 20.0500 -156.7167 328° Northwest 200 230 5,100  Level Honolulu Center
16:51 20.1000 -156.7500 328° Northwest 200 230 5,100  Level Honolulu Center
16:52 20.1500 -156.7833 328° Northwest 200 230 5,100  Level Honolulu Center
16:53 20.1833 -156.8167 317° Northwest 200 230 5,100  Level Honolulu Center
16:54 20.2333 -156.8667 317° Northwest 200 230 5,100  Level Honolulu Center
16:55 20.2833 -156.8833 343° North 190 219 5,100  Level Honolulu Center
16:56 20.3167 -156.9333 305° West 200 230 5,100  Level Honolulu Center
16:57 20.3667 -156.9667 328° Northwest 200 230 5,100  Level Honolulu Center
16:58 20.4167 -157.0000 328° Northwest 200 230 5,100  Level Honolulu Center
16:59 20.4500 -157.0333 317° Northwest 190 219 5,100  Level Honolulu Center
17:00 20.5000 -157.0667 328° Northwest 190 219 5,100  Level Honolulu Center
17:01 20.5500 -157.1000 328° Northwest 200 230 5,100  Level Honolulu Center
17:02 20.5833 -157.1333 317° Northwest 190 219 5,100  Level Honolulu Center
17:03 20.6333 -157.1667 328° Northwest 190 219 5,100  Level Honolulu Center
17:04 20.6833 -157.2000 328° Northwest 190 219 5,100  Level Honolulu Center
17:05 20.7167 -157.2333 317° Northwest 190 219 5,100  Level Honolulu Center
17:06 20.7667 -157.2500 343° North 190 219 5,100  Level Honolulu Center
17:07 20.8000 -157.2167 43° Northeast 210 242 5,100  Level Honolulu Center
17:08 20.7667 -157.1667 125° Southeast 180 207 5,100  Level Honolulu Center
17:09 20.7000 -157.1500 167° South 200 230 5,100  Level Honolulu Center
17:10 20.6667 -157.1167 137° Southeast 200 230 5,100  Level Honolulu Center
17:11 20.6167 -157.0833 148° Southeast 210 242 5,100  Level Honolulu Center
17:12 20.5667 -157.0500 148° Southeast 200 230 5,100  Level Honolulu Center
17:13 20.5167 -157.0333 163° South 200 230 5,100  Level Honolulu Center
17:14 20.4667 -157.0000 148° Southeast 200 230 5,100  Level Honolulu Center
17:15 20.4167 -156.9667 148° Southeast 200 230 5,100  Level Honolulu Center
17:16 20.3667 -156.9333 148° Southeast 200 230 5,100  Level Honolulu Center
17:17 20.3333 -156.9000 137° Southeast 190 219 5,100  Level Honolulu Center
17:18 20.2833 -156.8667 148° Southeast 200 230 5,100  Level Honolulu Center
17:19 20.2333 -156.8500 163° South 200 230 5,100  Level Honolulu Center
17:20 20.1833 -156.8167 148° Southeast 200 230 5,100  Level Honolulu Center
17:21 20.1333 -156.7833 148° Southeast 200 230 5,100  Level Honolulu Center
17:22 20.1000 -156.7500 137° Southeast 190 219 5,100  Level Honolulu Center
17:23 20.0500 -156.7333 163° South 200 230 5,100  Level Honolulu Center
17:24 20.0000 -156.7000 148° Southeast 200 230 5,100  Level Honolulu Center
17:25 19.9500 -156.6667 148° Southeast 200 230 5,100  Level Honolulu Center
17:26 19.9000 -156.6333 148° Southeast 190 219 5,100  Level Honolulu Center
17:27 19.8500 -156.6167 163° South 200 230 5,100 -60 Level Honolulu Center
17:28 19.8000 -156.5833 148° Southeast 200 230 5,000  Descending Honolulu Center
17:29 19.7667 -156.5500 137° Southeast 190 219 5,100  Climbing Honolulu Center
17:30 19.7167 -156.5333 163° South 190 219 5,100  Level Honolulu Center
17:31 19.6667 -156.5000 148° Southeast 190 219 5,100  Level Honolulu Center
17:32 19.6167 -156.4667 148° Southeast 200 230 5,100  Level Honolulu Center
17:33 19.5667 -156.4333 148° Southeast 190 219 5,100  Level Honolulu Center
17:34 19.5333 -156.4167 155° Southeast 190 219 5,100  Level Honolulu Center
17:35 19.4833 -156.3833 148° Southeast 190 219 5,100  Level Honolulu Center
17:36 19.4333 -156.3500 148° Southeast 190 219 5,100  Level Honolulu Center
17:37 19.3833 -156.3167 148° Southeast 200 230 5,100  Level Honolulu Center
17:38 19.3333 -156.3000 163° South 200 230 5,100  Level Honolulu Center
17:39 19.3000 -156.2667 137° Southeast 190 219 5,100 -60 Level Honolulu Center
17:40 19.2500 -156.2333 148° Southeast 220 253 5,000  Descending Honolulu Center
17:41 19.2000 -156.2167 163° South 170 196 5,100  Climbing Honolulu Center
17:42 19.1500 -156.1833 148° Southeast 180 207 5,100  Level Honolulu Center
17:43 19.1167 -156.1667 155° Southeast 190 219 5,100  Level Honolulu Center
17:44 19.0667 -156.1333 148° Southeast 190 219 5,100  Level Honolulu Center
17:45 19.0167 -156.1167 163° South 180 207 5,100  Level Honolulu Center
17:46 18.9667 -156.1000 163° South 190 219 5,100  Level Honolulu Center
17:47 18.9167 -156.0667 148° Southeast 190 219 5,100  Level Honolulu Center
17:48 18.8833 -156.0500 155° Southeast 180 207 5,100  Level Honolulu Center
17:49 18.8333 -156.0167 148° Southeast 180 207 5,100 240 Level Honolulu Center
17:50 18.7833 -156.0000 162° South 200 230 5,700 1,800 Climbing Honolulu Center
17:51 18.6833 -155.9667 162° South 270 311 9,400 3,120 Climbing Honolulu Center
17:52 18.6167 -155.9333 155° Southeast 290 334 13,000 2,760 Climbing Honolulu Center
17:53 18.5333 -155.9000 159° South 290 334 15,000 960 Climbing Honolulu Center
17:54 18.4667 -155.8667 155° Southeast 300 345 15,000  Level Honolulu Center
17:55 18.3833 -155.8333 159° South 300 345 15,000  Level Honolulu Center
17:56 18.3167 -155.8000 155° Southeast 300 345 15,000 60 Level Honolulu Center
17:57 18.2333 -155.7667 159° South 310 357 15,200 600 Climbing Honolulu Center
17:58 18.1500 -155.7167 150° Southeast 280 322 16,300 1,200 Climbing Honolulu Center
17:59 18.1667 -155.6333 78° East 300 345 17,700 1,380 Climbing Honolulu Center
18:00 18.2167 -155.5833 44° Northeast 320 368 19,200 1,500 Climbing Honolulu Center
18:01 18.2833 -155.5167 44° Northeast 330 380 20,800 1,500 Climbing Honolulu Center
18:02 18.3500 -155.4500 44° Northeast 320 368 22,200 1,500 Climbing Honolulu Center
18:03 18.4167 -155.3833 43° Northeast 320 368 23,800 1,440 Climbing Honolulu Center
18:04 18.4833 -155.3167 43° Northeast 340 391 25,100 1,140 Climbing Honolulu Center
18:05 18.5667 -155.2500 37° Northeast 390 449 26,200 1,260 Climbing Honolulu Center
18:06 18.6500 -155.1667 43° Northeast 420 483 27,700 1,320 Climbing Honolulu Center
18:07 18.7333 -155.0667 49° Northeast 450 518 28,900 1,320 Climbing Honolulu Center
18:08 18.8333 -154.9667 43° Northeast 480 552 30,400 900 Climbing Honolulu Center
18:09 18.9333 -154.8667 43° Northeast 490 564 30,700 660 Climbing Honolulu Center
18:10 19.0333 -154.7667 43° Northeast 490 564 31,800 1,080 Climbing Honolulu Center
18:11 19.1500 -154.6500 43° Northeast 500 575 32,900 1,080 Climbing Honolulu Center
18:12 19.2500 -154.5500 43° Northeast 500 575 34,000 1,140 Climbing Honolulu Center
18:13 19.3667 -154.4500 39° Northeast 510 587 35,200 960 Climbing Honolulu Center
18:14 19.4667 -154.3500 43° Northeast 510 587 36,000 660 Climbing Honolulu Center
18:15 19.5667 -154.2500 43° Northeast 500 575 36,600 720 Climbing Honolulu Center
18:16 19.6667 -154.1500 43° Northeast 500 575 37,500 780 Climbing Honolulu Center
18:17 19.7667 -154.0500 43° Northeast 500 575 38,200 720 Climbing Honolulu Center
18:18 19.8667 -153.9500 43° Northeast 500 575 39,000 360 Climbing Honolulu Center
18:19 19.9667 -153.8500 43° Northeast 500 575 39,000  Level Honolulu Center
18:20 20.0667 -153.7333 48° Northeast 490 564 39,000  Level Honolulu Center
18:21 20.1667 -153.6333 43° Northeast 490 564 39,000  Level Honolulu Center
18:22 20.2667 -153.5333 43° Northeast 500 575 39,000  Level Honolulu Center
18:23 20.3667 -153.4333 43° Northeast 500 575 39,000  Level Honolulu Center
18:24 20.4667 -153.3333 43° Northeast 490 564 39,000  Level Honolulu Center
18:25 20.5667 -153.2333 43° Northeast 490 564 39,000  Level Honolulu Center
18:26 20.6667 -153.1167 47° Northeast 500 575 39,000  Level Honolulu Center
18:27 20.6333 -152.9833 105° East 510 587 39,000  Level Honolulu Center
18:28 20.5000 -152.9167 155° Southeast 530 610 39,000  Level Honolulu Center
18:29 20.3833 -153.0000 214° Southwest 480 552 39,000  Level Honolulu Center
18:30 20.3000 -153.1000 228° Southwest 460 529 39,000  Level Honolulu Center
18:31 20.2000 -153.2000 223° Southwest 470 541 39,000  Level Honolulu Center
18:32 20.1167 -153.2833 223° Southwest 470 541 39,000  Level Honolulu Center
18:33 20.0167 -153.3833 223° Southwest 460 529 39,000  Level Honolulu Center
18:34 19.9333 -153.4833 228° Southwest 460 529 39,000  Level Honolulu Center
18:35 19.8333 -153.5667 218° Southwest 460 529 39,000  Level Honolulu Center
18:36 19.7333 -153.6667 223° Southwest 460 529 39,000  Level Honolulu Center
18:37 19.6333 -153.7667 223° Southwest 460 529 39,000  Level Honolulu Center
18:38 19.5500 -153.8500 223° Southwest 460 529 39,000  Level Honolulu Center
18:39 19.4500 -153.9500 223° Southwest 470 541 39,000  Level Honolulu Center
18:40 19.3500 -154.0333 218° Southwest 470 541 39,000  Level Honolulu Center
18:41 19.2667 -154.1333 229° Southwest 460 529 39,000  Level Honolulu Center
18:42 19.1667 -154.2333 223° Southwest 460 529 39,000  Level Honolulu Center
18:43 19.0667 -154.3167 218° Southwest 460 529 39,000  Level Honolulu Center
18:44 18.9833 -154.4167 229° Southwest 460 529 39,000  Level Honolulu Center
18:45 18.8833 -154.5167 223° Southwest 460 529 39,000  Level Honolulu Center
18:46 18.7833 -154.6000 218° Southwest 470 541 39,000  Level Honolulu Center
18:47 18.7000 -154.7000 229° Southwest 460 529 39,000  Level Honolulu Center
18:48 18.6167 -154.7667 217° Southwest 470 541 39,000  Level Honolulu Center
18:49 18.5167 -154.8667 223° Southwest 460 529 39,000  Level Honolulu Center
18:50 18.4333 -154.9667 229° Southwest 460 529 39,000  Level Honolulu Center
18:51 18.3333 -155.0500 218° Southwest 460 529 39,000  Level Honolulu Center
18:52 18.2500 -155.1500 229° Southwest 460 529 39,000  Level Honolulu Center
18:53 18.1500 -155.2333 218° Southwest 450 518 39,000  Level Honolulu Center
18:54 18.0667 -155.3333 229° Southwest 450 518 39,000  Level Honolulu Center
18:55 18.0333 -155.4500 253° West 460 529 39,000  Level Honolulu Center
18:56 18.1333 -155.5333 322° Northwest 470 541 39,000  Level Honolulu Center
18:57 18.2500 -155.4833 22° Northeast 480 552 39,000  Level Honolulu Center
18:58 18.3667 -155.3833 39° Northeast 510 587 39,000  Level Honolulu Center
18:59 18.4667 -155.2833 43° Northeast 500 575 39,000  Level Honolulu Center
19:00 18.5667 -155.1833 43° Northeast 500 575 39,000  Level Honolulu Center
19:01 18.6667 -155.0833 43° Northeast 500 575 39,000  Level Honolulu Center
19:02 18.7667 -154.9833 43° Northeast 490 564 39,000  Level Honolulu Center
19:03 18.8833 -154.9000 34° Northeast 490 564 39,000  Level Honolulu Center
19:04 19.0000 -154.7833 43° Northeast 500 575 39,000  Level Honolulu Center
19:05 19.1000 -154.6833 43° Northeast 500 575 39,000  Level Honolulu Center
19:06 19.2000 -154.5833 43° Northeast 510 587 39,000  Level Honolulu Center
19:07 19.3000 -154.4833 43° Northeast 500 575 39,000  Level Honolulu Center
19:08 19.4167 -154.3833 39° Northeast 510 587 39,000  Level Honolulu Center
19:09 19.5167 -154.2833 43° Northeast 500 575 39,000  Level Honolulu Center
19:10 19.6167 -154.1833 43° Northeast 490 564 39,000  Level Honolulu Center
19:11 19.7167 -154.0833 43° Northeast 500 575 39,000  Level Honolulu Center
19:12 19.8167 -153.9833 43° Northeast 490 564 39,000  Level Honolulu Center
19:13 19.9167 -153.8833 43° Northeast 490 564 39,000  Level Honolulu Center
19:14 20.0167 -153.7833 43° Northeast 500 575 39,000  Level Honolulu Center
19:15 20.1167 -153.6833 43° Northeast 500 575 39,000  Level Honolulu Center
19:16 20.2167 -153.5833 43° Northeast 500 575 39,000  Level Honolulu Center
19:17 20.3167 -153.4833 43° Northeast 490 564 39,000  Level Honolulu Center
19:18 20.4333 -153.3833 39° Northeast 490 564 39,000  Level Honolulu Center
19:19 20.5167 -153.2833 48° Northeast 490 564 39,000  Level Honolulu Center
19:20 20.5000 -153.1333 97° East 500 575 39,000  Level Honolulu Center
19:21 20.3833 -153.0667 152° Southeast 530 610 39,000  Level Honolulu Center
19:22 20.2667 -153.1500 214° Southwest 470 541 39,000  Level Honolulu Center
19:23 20.1833 -153.2500 228° Southwest 460 529 39,000  Level Honolulu Center
19:24 20.1000 -153.3500 228° Southwest 470 541 39,000  Level Honolulu Center
19:25 20.0000 -153.4500 223° Southwest 470 541 39,000  Level Honolulu Center
19:26 19.9167 -153.5500 228° Southwest 460 529 39,000  Level Honolulu Center
19:27 19.8167 -153.6333 218° Southwest 470 541 39,000  Level Honolulu Center
19:28 19.7333 -153.7333 228° Southwest 460 529 39,000  Level Honolulu Center
19:29 19.6333 -153.8333 223° Southwest 470 541 39,000  Level Honolulu Center
19:30 19.5500 -153.9333 229° Southwest 460 529 39,000  Level Honolulu Center
19:31 19.4500 -154.0333 223° Southwest 470 541 39,000  Level Honolulu Center
19:32 19.3667 -154.1333 229° Southwest 460 529 39,000  Level Honolulu Center
19:33 19.2667 -154.2333 223° Southwest 460 529 39,000  Level Honolulu Center
19:34 19.1833 -154.3167 223° Southwest 460 529 39,000  Level Honolulu Center
19:35 19.1000 -154.4167 229° Southwest 460 529 39,000  Level Honolulu Center
19:36 19.0000 -154.5167 223° Southwest 460 529 39,000  Level Honolulu Center
19:37 18.9167 -154.6167 229° Southwest 460 529 39,000  Level Honolulu Center
19:38 18.8167 -154.7167 223° Southwest 460 529 39,000  Level Honolulu Center
19:39 18.7333 -154.8167 229° Southwest 460 529 39,000  Level Honolulu Center
19:40 18.6667 -154.9000 230° Southwest 460 529 39,000  Level Honolulu Center
19:41 18.5667 -154.9833 218° Southwest 460 529 39,000  Level Honolulu Center
19:42 18.4833 -155.0833 229° Southwest 450 518 39,000  Level Honolulu Center
19:43 18.4000 -155.1833 229° Southwest 460 529 39,000  Level Honolulu Center
19:44 18.3000 -155.2833 224° Southwest 460 529 39,000  Level Honolulu Center
19:45 18.2167 -155.3667 224° Southwest 460 529 39,000  Level Honolulu Center
19:46 18.1167 -155.4667 224° Southwest 460 529 39,000  Level Honolulu Center
19:47 18.0500 -155.5667 235° Southwest 470 541 39,000  Level Honolulu Center
19:48 18.1167 -155.6833 301° West 470 541 39,000  Level Honolulu Center
19:49 18.2500 -155.6333 20° North 470 541 39,000  Level Honolulu Center
19:50 18.3333 -155.5167 53° Northeast 500 575 39,000  Level Honolulu Center
19:51 18.4333 -155.4167 43° Northeast 500 575 39,000  Level Honolulu Center
19:52 18.5333 -155.3000 48° Northeast 500 575 39,000  Level Honolulu Center
19:53 18.6333 -155.2000 43° Northeast 500 575 39,000  Level Honolulu Center
19:54 18.7333 -155.1000 43° Northeast 500 575 39,000  Level Honolulu Center
19:55 18.8333 -155.0000 43° Northeast 510 587 39,000  Level Honolulu Center
19:56 18.9333 -154.9000 43° Northeast 500 575 39,000  Level Honolulu Center
19:57 19.0500 -154.7667 47° Northeast 500 575 39,000  Level Honolulu Center
19:58 19.1500 -154.6667 43° Northeast 500 575 39,000  Level Honolulu Center
19:59 19.2500 -154.5667 43° Northeast 510 587 39,000  Level Honolulu Center
20:00 19.3333 -154.4500 53° Northeast 510 587 39,000  Level Honolulu Center
20:01 19.4333 -154.3500 43° Northeast 500 575 39,000  Level Honolulu Center
20:02 19.5333 -154.2500 43° Northeast 500 575 39,000  Level Honolulu Center
20:03 19.6333 -154.1333 48° Northeast 500 575 39,000  Level Honolulu Center
20:04 19.7333 -154.0333 43° Northeast 500 575 39,000  Level Honolulu Center
20:05 19.8333 -153.9333 43° Northeast 500 575 39,000  Level Honolulu Center
20:06 19.9333 -153.8333 43° Northeast 500 575 39,000  Level Honolulu Center
20:07 20.0333 -153.7333 43° Northeast 490 564 39,000  Level Honolulu Center
20:08 20.1333 -153.6167 48° Northeast 500 575 39,000  Level Honolulu Center
20:09 20.2167 -153.5167 48° Northeast 500 575 39,000  Level Honolulu Center
20:10 20.3167 -153.4167 43° Northeast 490 564 39,000  Level Honolulu Center
20:11 20.4167 -153.3167 43° Northeast 490 564 39,000  Level Honolulu Center
20:12 20.5000 -153.2000 53° Northeast 460 529 39,000  Level Honolulu Center
20:13 20.3667 -153.1000 145° Southeast 520 598 39,000  Level Honolulu Center
20:14 20.2500 -153.1500 202° Southwest 480 552 39,000  Level Honolulu Center
20:15 20.1667 -153.2500 228° Southwest 460 529 39,000  Level Honolulu Center
20:16 20.0667 -153.3333 218° Southwest 470 541 39,000  Level Honolulu Center
20:17 19.9667 -153.4333 223° Southwest 470 541 39,000  Level Honolulu Center
20:18 19.8667 -153.5167 218° Southwest 460 529 39,000  Level Honolulu Center
20:19 19.7833 -153.6167 228° Southwest 470 541 39,000  Level Honolulu Center
20:20 19.6833 -153.7167 223° Southwest 470 541 39,000  Level Honolulu Center
20:21 19.5833 -153.8000 218° Southwest 470 541 39,000  Level Honolulu Center
20:22 19.4833 -153.9000 223° Southwest 460 529 39,000  Level Honolulu Center
20:23 19.3833 -153.9833 218° Southwest 460 529 39,000  Level Honolulu Center
20:24 19.2833 -154.0667 218° Southwest 460 529 39,000  Level Honolulu Center
20:25 19.2000 -154.1667 229° Southwest 470 541 39,000  Level Honolulu Center
20:26 19.1000 -154.2500 218° Southwest 460 529 39,000  Level Honolulu Center
20:27 19.0000 -154.3500 223° Southwest 460 529 39,000  Level Honolulu Center
20:28 18.9000 -154.4333 218° Southwest 460 529 39,000  Level Honolulu Center
20:29 18.8167 -154.5333 229° Southwest 460 529 39,000  Level Honolulu Center
20:30 18.7167 -154.6167 218° Southwest 460 529 39,000  Level Honolulu Center
20:31 18.6167 -154.7167 223° Southwest 460 529 39,000  Level Honolulu Center
20:32 18.5833 -154.8333 253° West 490 564 39,000  Level Honolulu Center
20:33 18.7000 -154.9000 332° Northwest 480 552 39,000  Level Honolulu Center
20:34 18.8333 -154.9000 360° North 490 564 39,000  Level Honolulu Center
20:35 18.9500 -154.9167 352° North 490 564 39,000 -480 Level Honolulu Center
20:36 19.1000 -154.9333 354° North 480 552 38,100 -3,000 Descending Honolulu Center
20:37 19.2167 -154.9500 352° North 470 541 33,100 -3,360 Descending Honolulu Center
20:38 19.3667 -154.9667 354° North 490 564 31,400 -1,560 Descending Honolulu Center
20:39 19.5000 -154.9833 353° North 470 541 30,000 -540 Descending Honolulu Center
20:41 19.7333 -155.0167 352° North 460 529 29,900 -720 Descending Honolulu Center
20:42 19.8167 -155.1167 312° West 400 460 27,900 -3,180 Descending Honolulu Center
20:43 19.8833 -155.2000 310° West 410 472 23,600 -3,660 Descending Honolulu Center
20:44 19.9667 -155.3000 312° West 410 472 20,600 -3,000 Descending Honolulu Center
20:45 20.0333 -155.3833 310° West 390 449 17,700 -2,760 Descending Honolulu Center
20:46 20.1000 -155.4667 310° West 380 437 15,100 -2,820 Descending Honolulu Center
20:47 20.1167 -155.5833 279° West 370 426 12,100 -2,040 Descending Honolulu Center
20:48 20.1167 -155.6833 270° West 330 380 11,100 -1,260 Descending Honolulu Center
20:49 20.1167 -155.7667 270° West 280 322 9,600 -1,080 Descending Honolulu Center
20:50 20.1167 -155.8500 270° West 250 288 9,000 -660 Descending Honolulu Center
20:51 20.1167 -155.9167 270° West 240 276 8,300 -1,080 Descending Honolulu Center
20:52 20.0833 -155.9667 235° Southwest 240 276 6,900 -1,320 Descending Honolulu Center
20:53 20.0167 -156.0000 205° Southwest 230 265 5,700 -1,200 Descending Honolulu Center
20:54 19.9667 -156.0167 197° South 230 265 4,500 -1,320 Descending Honolulu Center
20:55 19.9000 -156.0167 180° South 220 253 3,100 -1,260 Descending Honolulu Center
20:56 19.8500 -156.0333 197° South 170 196 2,000 -900 Descending Honolulu Center
20:57 19.8000 -156.0333 180° South 150 173 1,300 -780 Descending Honolulu Center
20:58 19.7667 -156.0333 180° South 140 161 500 -840 Descending Honolulu Center
21:00 19.7333 -156.0333 197° South  Level FlightAware Approximate
21:07 19.7388 -156.0456 197° South  Level Estimated
21:08 19.7388 -156.0456 197° South  Level Estimated
21:09 19.7388 -156.0456 197° South  Level Estimated
21:10 19.7388 -156.0456 197° South  Level Estimated
21:11 19.7388 -156.0456 197° South  Level Estimated
21:12 19.7388 -156.0456 197° South  Level Estimated
21:13 19.7388 -156.0456 197° South  Level Estimated
21:14 19.7388 -156.0456 197° South  Level Estimated
21:15 19.7388 -156.0456 197° South  Level Estimated